Terminal Aerodrome Forecast
Issued by NWS King Salmon, AK

Home | Current Version | Previous Version | Text Only | Print | Product List | Glossary On
Versions: 1 2 3 4 5 6 7 8 9 10 11 12 13 14 15 16 17 18 19 20 21 22 23 24 25 26
000
FTAK31 PANC 231740
TAFAKN
TAF
PAKN 231740Z 2318/2418 11010KT P6SM VCSH SCT050 BKN080
     FM240000 11012G18KT P6SM VCSH SCT050 BKN080
     FM240600 11010KT P6SM VCSH BKN050 OVC080
     FM241000 09006KT P6SM -SHRA SCT035 OVC050=

USA.gov is the U.S. government's official web portal to all federal, state and local government web resources and services.